sensor_id;sensor_type;location;lat;lon;timestamp;pressure;altitude;pressure_sealevel;temperature;humidity
63493;BME280;49638;47.526;10.028;2023-01-27T00:01:56;91487.81;;;-3.12;83.13
63493;BME280;49638;47.526;10.028;2023-01-27T00:04:56;91507.31;;;-3.10;83.61
63493;BME280;49638;47.526;10.028;2023-01-27T00:07:56;91489.28;;;-3.18;83.49
63493;BME280;49638;47.526;10.028;2023-01-27T00:10:58;91494.13;;;-3.15;83.57
63493;BME280;49638;47.526;10.028;2023-01-27T00:14:17;91491.84;;;-3.18;83.52
63493;BME280;49638;47.526;10.028;2023-01-27T00:17:17;91487.81;;;-3.20;83.39
63493;BME280;49638;47.526;10.028;2023-01-27T00:20:17;91491.53;;;-3.23;83.07
63493;BME280;49638;47.526;10.028;2023-01-27T00:23:37;91484.16;;;-3.26;83.02
63493;BME280;49638;47.526;10.028;2023-01-27T00:26:57;91475.88;;;-3.29;83.11
63493;BME280;49638;47.526;10.028;2023-01-27T00:29:57;91476.59;;;-3.36;82.84
63493;BME280;49638;47.526;10.028;2023-01-27T00:32:57;91463.72;;;-3.52;83.40
63493;BME280;49638;47.526;10.028;2023-01-27T00:36:16;91469.44;;;-3.25;83.53
63493;BME280;49638;47.526;10.028;2023-01-27T00:39:16;91459.44;;;-3.28;82.92
63493;BME280;49638;47.526;10.028;2023-01-27T00:42:16;91472.97;;;-3.18;83.18
63493;BME280;49638;47.526;10.028;2023-01-27T00:45:17;91468.94;;;-3.21;82.36
63493;BME280;49638;47.526;10.028;2023-01-27T00:48:35;91467.28;;;-3.14;82.53
63493;BME280;49638;47.526;10.028;2023-01-27T00:51:36;91458.78;;;-3.22;82.40
63493;BME280;49638;47.526;10.028;2023-01-27T00:54:36;91470.38;;;-3.18;82.74
63493;BME280;49638;47.526;10.028;2023-01-27T00:57:37;91455.91;;;-3.36;82.54
63493;BME280;49638;47.526;10.028;2023-01-27T01:00:37;91465.56;;;-3.29;82.63
63493;BME280;49638;47.526;10.028;2023-01-27T01:03:37;91461.56;;;-3.32;82.44
63493;BME280;49638;47.526;10.028;2023-01-27T01:06:38;91462.22;;;-3.38;83.67
63493;BME280;49638;47.526;10.028;2023-01-27T01:09:38;91460.38;;;-3.29;83.04
63493;BME280;49638;47.526;10.028;2023-01-27T01:12:38;91458.44;;;-3.27;83.25
63493;BME280;49638;47.526;10.028;2023-01-27T01:15:39;91464.91;;;-3.23;83.19
63493;BME280;49638;47.526;10.028;2023-01-27T01:18:40;91464.91;;;-3.23;83.00
63493;BME280;49638;47.526;10.028;2023-01-27T01:21:41;91468.47;;;-3.24;83.01
63493;BME280;49638;47.526;10.028;2023-01-27T01:24:42;91468.47;;;-3.24;82.77
63493;BME280;49638;47.526;10.028;2023-01-27T01:27:44;91461.50;;;-3.24;82.71
63493;BME280;49638;47.526;10.028;2023-01-27T01:30:44;91468.47;;;-3.24;82.77
63493;BME280;49638;47.526;10.028;2023-01-27T01:33:45;91471.69;;;-3.22;83.33
63493;BME280;49638;47.526;10.028;2023-01-27T01:36:46;91468.78;;;-3.19;83.18
63493;BME280;49638;47.526;10.028;2023-01-27T01:39:47;91467.13;;;-3.12;82.61
63493;BME280;49638;47.526;10.028;2023-01-27T01:43:05;91475.19;;;-3.07;83.16
63493;BME280;49638;47.526;10.028;2023-01-27T01:46:10;91463.25;;;-3.16;82.50
63493;BME280;49638;47.526;10.028;2023-01-27T01:49:11;91457.31;;;-3.25;82.28
63493;BME280;49638;47.526;10.028;2023-01-27T01:52:15;91470.06;;;-3.15;83.31
63493;BME280;49638;47.526;10.028;2023-01-27T01:55:17;91463.91;;;-3.14;82.49
63493;BME280;49638;47.526;10.028;2023-01-27T01:58:17;91456.31;;;-3.16;82.35
63493;BME280;49638;47.526;10.028;2023-01-27T02:01:20;91439.97;;;-3.08;83.56
63493;BME280;49638;47.526;10.028;2023-01-27T02:04:23;91433.22;;;-3.17;82.81
63493;BME280;49638;47.526;10.028;2023-01-27T02:10:32;91430.00;;;-3.19;83.38
63493;BME280;49638;47.526;10.028;2023-01-27T02:13:32;91433.56;;;-3.20;84.25
63493;BME280;49638;47.526;10.028;2023-01-27T02:16:32;91430.00;;;-3.19;84.13
63493;BME280;49638;47.526;10.028;2023-01-27T02:26:39;91437.25;;;-3.23;82.86
63493;BME280;49638;47.526;10.028;2023-01-27T02:29:41;91442.63;;;-3.24;83.07
63493;BME280;49638;47.526;10.028;2023-01-27T02:32:41;91457.78;;;-3.21;83.57
63493;BME280;49638;47.526;10.028;2023-01-27T02:35:49;91442.25;;;-3.13;83.96
63493;BME280;49638;47.526;10.028;2023-01-27T02:38:52;91447.75;;;-3.16;83.95
63493;BME280;49638;47.526;10.028;2023-01-27T02:41:56;91453.56;;;-3.14;83.80
63493;BME280;49638;47.526;10.028;2023-01-27T02:44:57;91428.25;;;-3.27;83.28
63493;BME280;49638;47.526;10.028;2023-01-27T02:47:58;91418.75;;;-3.35;84.17
63493;BME280;49638;47.526;10.028;2023-01-27T02:50:58;91436.47;;;-3.23;83.13
63493;BME280;49638;47.526;10.028;2023-01-27T02:53:59;91433.09;;;-3.24;83.87
63493;BME280;49638;47.526;10.028;2023-01-27T02:56:59;91435.97;;;-3.19;83.27
63493;BME280;49638;47.526;10.028;2023-01-27T02:59:59;91435.19;;;-3.19;84.00
63493;BME280;49638;47.526;10.028;2023-01-27T03:02:59;91416.16;;;-3.35;83.27
63493;BME280;49638;47.526;10.028;2023-01-27T03:06:00;91428.44;;;-3.28;83.88
63493;BME280;49638;47.526;10.028;2023-01-27T03:09:00;91431.00;;;-3.28;83.83
63493;BME280;49638;47.526;10.028;2023-01-27T03:12:00;91425.84;;;-3.28;83.98
63493;BME280;49638;47.526;10.028;2023-01-27T03:15:18;91424.91;;;-3.36;83.68
63493;BME280;49638;47.526;10.028;2023-01-27T03:18:37;91418.44;;;-3.40;84.08
63493;BME280;49638;47.526;10.028;2023-01-27T03:21:38;91424.91;;;-3.36;83.71
63493;BME280;49638;47.526;10.028;2023-01-27T03:24:38;91425.72;;;-3.35;83.80
63493;BME280;49638;47.526;10.028;2023-01-27T03:27:38;91412.00;;;-3.36;84.05
63493;BME280;49638;47.526;10.028;2023-01-27T03:30:39;91415.38;;;-3.35;84.24
63493;BME280;49638;47.526;10.028;2023-01-27T03:33:40;91387.44;;;-3.40;83.61
63493;BME280;49638;47.526;10.028;2023-01-27T03:36:42;91394.56;;;-3.42;83.99
63493;BME280;49638;47.526;10.028;2023-01-27T03:40:01;91395.19;;;-3.40;84.14
63493;BME280;49638;47.526;10.028;2023-01-27T03:43:21;91402.13;;;-3.40;84.36
63493;BME280;49638;47.526;10.028;2023-01-27T03:46:40;91411.19;;;-3.44;83.23
63493;BME280;49638;47.526;10.028;2023-01-27T03:49:40;91399.94;;;-3.51;83.21
63493;BME280;49638;47.526;10.028;2023-01-27T03:52:40;91389.16;;;-3.63;83.42
63493;BME280;49638;47.526;10.028;2023-01-27T03:55:40;91418.19;;;-3.53;83.52
63493;BME280;49638;47.526;10.028;2023-01-27T03:58:41;91418.53;;;-3.56;83.28
63493;BME280;49638;47.526;10.028;2023-01-27T04:01:42;91429.81;;;-3.57;83.50
63493;BME280;49638;47.526;10.028;2023-01-27T04:04:43;91421.44;;;-3.59;84.21
63493;BME280;49638;47.526;10.028;2023-01-27T04:08:03;91443.03;;;-3.60;84.14
63493;BME280;49638;47.526;10.028;2023-01-27T04:11:04;91417.91;;;-3.66;83.88
63493;BME280;49638;47.526;10.028;2023-01-27T04:14:31;91423.03;;;-3.58;83.47
63493;BME280;49638;47.526;10.028;2023-01-27T04:17:31;91432.59;;;-3.67;83.71
63493;BME280;49638;47.526;10.028;2023-01-27T04:20:37;91426.59;;;-3.67;83.33
63493;BME280;49638;47.526;10.028;2023-01-27T04:23:38;91397.13;;;-3.81;82.90
63493;BME280;49638;47.526;10.028;2023-01-27T04:26:38;91381.88;;;-4.07;81.81
63493;BME280;49638;47.526;10.028;2023-01-27T04:29:41;91406.38;;;-4.19;83.08
63493;BME280;49638;47.526;10.028;2023-01-27T04:32:41;91409.94;;;-4.20;83.06
63493;BME280;49638;47.526;10.028;2023-01-27T04:35:42;91423.50;;;-4.26;83.16
63493;BME280;49638;47.526;10.028;2023-01-27T04:38:43;91396.91;;;-4.43;83.94
63493;BME280;49638;47.526;10.028;2023-01-27T04:41:44;91416.72;;;-4.36;84.03
63493;BME280;49638;47.526;10.028;2023-01-27T04:44:45;91389.00;;;-4.50;83.72
63493;BME280;49638;47.526;10.028;2023-01-27T04:47:45;91387.72;;;-4.46;83.11
63493;BME280;49638;47.526;10.028;2023-01-27T04:50:45;91393.69;;;-4.54;82.60
63493;BME280;49638;47.526;10.028;2023-01-27T04:53:46;91384.50;;;-4.56;82.85
63493;BME280;49638;47.526;10.028;2023-01-27T04:56:55;91391.44;;;-4.65;82.97
63493;BME280;49638;47.526;10.028;2023-01-27T04:59:56;91392.38;;;-4.66;84.32
63493;BME280;49638;47.526;10.028;2023-01-27T05:02:56;91392.53;;;-4.59;84.66
63493;BME280;49638;47.526;10.028;2023-01-27T05:05:56;91409.97;;;-4.53;84.59
63493;BME280;49638;47.526;10.028;2023-01-27T05:08:57;91397.06;;;-4.45;84.34
63493;BME280;49638;47.526;10.028;2023-01-27T05:11:57;91411.75;;;-4.37;85.11
63493;BME280;49638;47.526;10.028;2023-01-27T05:14:57;91418.00;;;-4.32;85.45
63493;BME280;49638;47.526;10.028;2023-01-27T05:17:58;91423.16;;;-4.32;85.38
63493;BME280;49638;47.526;10.028;2023-01-27T05:20:59;91388.50;;;-4.45;85.46
63493;BME280;49638;47.526;10.028;2023-01-27T05:24:00;91405.47;;;-4.35;85.00
63493;BME280;49638;47.526;10.028;2023-01-27T05:27:01;91403.53;;;-4.41;84.80
63493;BME280;49638;47.526;10.028;2023-01-27T05:30:01;91393.38;;;-4.50;84.10
63493;BME280;49638;47.526;10.028;2023-01-27T05:33:02;91382.09;;;-4.58;84.19
63493;BME280;49638;47.526;10.028;2023-01-27T05:36:04;91411.88;;;-4.39;85.12
63493;BME280;49638;47.526;10.028;2023-01-27T05:39:05;91401.09;;;-4.50;85.76
63493;BME280;49638;47.526;10.028;2023-01-27T05:42:05;91408.19;;;-4.36;86.13
63493;BME280;49638;47.526;10.028;2023-01-27T05:45:07;91405.44;;;-4.43;85.63
63493;BME280;49638;47.526;10.028;2023-01-27T05:48:07;91410.59;;;-4.43;85.09
63493;BME280;49638;47.526;10.028;2023-01-27T05:51:08;91420.28;;;-4.37;85.12
63493;BME280;49638;47.526;10.028;2023-01-27T05:54:09;91409.78;;;-4.43;85.48
63493;BME280;49638;47.526;10.028;2023-01-27T05:57:09;91430.09;;;-4.32;84.85
63493;BME280;49638;47.526;10.028;2023-01-27T06:00:10;91418.19;;;-4.41;85.47
63493;BME280;49638;47.526;10.028;2023-01-27T06:03:10;91441.41;;;-4.33;85.24
63493;BME280;49638;47.526;10.028;2023-01-27T06:06:11;91444.78;;;-4.24;85.90
63493;BME280;49638;47.526;10.028;2023-01-27T06:09:12;91431.88;;;-4.33;85.67
63493;BME280;49638;47.526;10.028;2023-01-27T06:12:12;91444.28;;;-4.20;85.59
63493;BME280;49638;47.526;10.028;2023-01-27T06:15:13;91435.25;;;-4.32;85.03
63493;BME280;49638;47.526;10.028;2023-01-27T06:18:14;91446.22;;;-4.22;85.91
63493;BME280;49638;47.526;10.028;2023-01-27T06:21:15;91451.22;;;-4.20;85.79
63493;BME280;49638;47.526;10.028;2023-01-27T06:24:16;91450.91;;;-4.17;85.84
63493;BME280;49638;47.526;10.028;2023-01-27T06:27:16;91450.75;;;-4.16;85.43
63493;BME280;49638;47.526;10.028;2023-01-27T06:30:17;91455.09;;;-4.16;85.60
63493;BME280;49638;47.526;10.028;2023-01-27T06:33:17;91458.97;;;-4.20;85.67
63493;BME280;49638;47.526;10.028;2023-01-27T06:36:19;91466.38;;;-4.09;84.89
63493;BME280;49638;47.526;10.028;2023-01-27T06:39:20;91468.31;;;-4.11;85.09
63493;BME280;49638;47.526;10.028;2023-01-27T06:42:20;91456.41;;;-4.20;85.13
63493;BME280;49638;47.526;10.028;2023-01-27T06:45:21;91478.00;;;-4.13;85.76
63493;BME280;49638;47.526;10.028;2023-01-27T06:48:22;91469.59;;;-4.15;83.81
63493;BME280;49638;47.526;10.028;2023-01-27T06:51:22;91490.09;;;-4.06;83.40
63493;BME280;49638;47.526;10.028;2023-01-27T06:54:22;91484.44;;;-4.01;82.54
63493;BME280;49638;47.526;10.028;2023-01-27T06:57:23;91471.72;;;-4.11;84.37
63493;BME280;49638;47.526;10.028;2023-01-27T07:00:23;91479.44;;;-4.02;83.50
63493;BME280;49638;47.526;10.028;2023-01-27T07:03:23;91482.69;;;-4.00;83.38
63493;BME280;49638;47.526;10.028;2023-01-27T07:06:24;91488.31;;;-3.97;83.57
63493;BME280;49638;47.526;10.028;2023-01-27T07:09:24;91494.44;;;-3.98;83.13
63493;BME280;49638;47.526;10.028;2023-01-27T07:12:24;91494.59;;;-3.99;83.23
63493;BME280;49638;47.526;10.028;2023-01-27T07:15:24;91487.84;;;-4.00;83.03
63493;BME280;49638;47.526;10.028;2023-01-27T07:18:25;91494.59;;;-3.91;81.80
63493;BME280;49638;47.526;10.028;2023-01-27T07:21:25;91494.59;;;-3.83;81.86
63493;BME280;49638;47.526;10.028;2023-01-27T07:24:25;91499.91;;;-3.76;82.57
63493;BME280;49638;47.526;10.028;2023-01-27T07:27:25;91493.44;;;-3.72;81.91
63493;BME280;49638;47.526;10.028;2023-01-27T07:30:27;91507.00;;;-3.70;82.28
63493;BME280;49638;47.526;10.028;2023-01-27T07:33:28;91503.47;;;-3.69;83.10
63493;BME280;49638;47.526;10.028;2023-01-27T07:36:28;91493.44;;;-3.64;83.57
63493;BME280;49638;47.526;10.028;2023-01-27T07:39:28;91502.13;;;-3.57;83.17
63493;BME280;49638;47.526;10.028;2023-01-27T07:42:28;91507.63;;;-3.52;83.31
63493;BME280;49638;47.526;10.028;2023-01-27T07:45:29;91503.91;;;-3.49;83.27
63493;BME280;49638;47.526;10.028;2023-01-27T07:48:30;91506.28;;;-3.40;83.07
63493;BME280;49638;47.526;10.028;2023-01-27T07:51:30;91483.88;;;-3.47;83.14
63493;BME280;49638;47.526;10.028;2023-01-27T07:54:31;91514.00;;;-3.15;82.16
63493;BME280;49638;47.526;10.028;2023-01-27T07:57:31;91516.53;;;-3.07;80.86
63493;BME280;49638;47.526;10.028;2023-01-27T08:00:31;91510.22;;;-3.04;81.05
63493;BME280;49638;47.526;10.028;2023-01-27T08:03:32;91504.22;;;-2.97;81.77
63493;BME280;49638;47.526;10.028;2023-01-27T08:06:32;91487.38;;;-2.93;81.85
63493;BME280;49638;47.526;10.028;2023-01-27T08:09:32;91502.03;;;-2.77;81.62
63493;BME280;49638;47.526;10.028;2023-01-27T08:12:32;91494.06;;;-2.67;81.52
63493;BME280;49638;47.526;10.028;2023-01-27T08:15:33;91494.00;;;-2.59;81.40
63493;BME280;49638;47.526;10.028;2023-01-27T08:18:33;91490.59;;;-2.51;81.15
63493;BME280;49638;47.526;10.028;2023-01-27T08:21:34;91496.91;;;-2.54;81.47
63493;BME280;49638;47.526;10.028;2023-01-27T08:24:34;91487.22;;;-2.60;81.84
63493;BME280;49638;47.526;10.028;2023-01-27T08:27:35;91505.63;;;-2.55;82.29
63493;BME280;49638;47.526;10.028;2023-01-27T08:30:35;91488.84;;;-2.59;82.07
63493;BME280;49638;47.526;10.028;2023-01-27T08:33:36;91498.97;;;-2.49;82.23
63493;BME280;49638;47.526;10.028;2023-01-27T08:36:39;91507.19;;;-2.46;81.48
63493;BME280;49638;47.526;10.028;2023-01-27T08:39:41;91497.50;;;-2.44;80.64
63493;BME280;49638;47.526;10.028;2023-01-27T08:42:41;91500.09;;;-2.52;81.14
63493;BME280;49638;47.526;10.028;2023-01-27T08:45:41;91514.97;;;-2.46;81.06
63493;BME280;49638;47.526;10.028;2023-01-27T08:48:42;91502.53;;;-2.50;79.44
63493;BME280;49638;47.526;10.028;2023-01-27T08:51:42;91502.41;;;-2.57;79.87
63493;BME280;49638;47.526;10.028;2023-01-27T08:54:42;91499.19;;;-2.59;81.02
63493;BME280;49638;47.526;10.028;2023-01-27T08:57:43;91505.28;;;-2.52;80.18
63493;BME280;49638;47.526;10.028;2023-01-27T09:00:43;91493.22;;;-2.59;80.27
63493;BME280;49638;47.526;10.028;2023-01-27T09:03:44;91496.91;;;-2.54;78.38
63493;BME280;49638;47.526;10.028;2023-01-27T09:06:45;91500.44;;;-2.55;78.10
63493;BME280;49638;47.526;10.028;2023-01-27T09:09:48;91515.00;;;-2.54;78.73
63493;BME280;49638;47.526;10.028;2023-01-27T09:12:48;91513.69;;;-2.50;79.66
63493;BME280;49638;47.526;10.028;2023-01-27T09:15:52;91521.47;;;-2.50;79.18
63493;BME280;49638;47.526;10.028;2023-01-27T09:18:52;91518.56;;;-2.55;76.00
63493;BME280;49638;47.526;10.028;2023-01-27T09:21:52;91518.75;;;-2.56;78.60
63493;BME280;49638;47.526;10.028;2023-01-27T09:24:53;91521.16;;;-2.55;79.46
63493;BME280;49638;47.526;10.028;2023-01-27T09:27:54;91520.19;;;-2.54;78.81
63493;BME280;49638;47.526;10.028;2023-01-27T09:30:56;91526.97;;;-2.53;78.96
63493;BME280;49638;47.526;10.028;2023-01-27T09:33:57;91517.59;;;-2.54;78.45
63493;BME280;49638;47.526;10.028;2023-01-27T09:37:01;91501.16;;;-2.61;78.36
63493;BME280;49638;47.526;10.028;2023-01-27T09:40:10;91514.63;;;-2.43;79.24
63493;BME280;49638;47.526;10.028;2023-01-27T09:53:36;91526.59;;;-2.19;78.70
63493;BME280;49638;47.526;10.028;2023-01-27T09:56:51;91543.84;;;-2.11;77.57
63493;BME280;49638;47.526;10.028;2023-01-27T10:06:32;91542.38;;;-2.05;76.60
63493;BME280;49638;47.526;10.028;2023-01-27T10:09:49;91535.13;;;-2.10;75.85
63493;BME280;49638;47.526;10.028;2023-01-27T10:16:23;91541.97;;;-1.94;76.89
63493;BME280;49638;47.526;10.028;2023-01-27T10:22:45;91533.84;;;-1.91;77.69
63493;BME280;49638;47.526;10.028;2023-01-27T10:29:23;91533.97;;;-1.84;76.67
63493;BME280;49638;47.526;10.028;2023-01-27T10:32:26;91524.88;;;-1.80;77.72
63493;BME280;49638;47.526;10.028;2023-01-27T10:35:33;91530.34;;;-1.75;76.87
63493;BME280;49638;47.526;10.028;2023-01-27T10:38:50;91524.16;;;-1.74;73.68
63493;BME280;49638;47.526;10.028;2023-01-27T10:45:23;91528.44;;;-1.81;73.74
63493;BME280;49638;47.526;10.028;2023-01-27T10:48:34;91536.66;;;-1.78;75.67
63493;BME280;49638;47.526;10.028;2023-01-27T10:51:43;91541.22;;;-1.80;75.05
63493;BME280;49638;47.526;10.028;2023-01-27T10:55:01;91539.78;;;-1.82;73.06
63493;BME280;49638;47.526;10.028;2023-01-27T10:58:10;91535.59;;;-1.83;74.81
63493;BME280;49638;47.526;10.028;2023-01-27T11:01:16;91535.41;;;-1.82;75.05
63493;BME280;49638;47.526;10.028;2023-01-27T11:04:28;91516.81;;;-1.85;74.42
63493;BME280;49638;47.526;10.028;2023-01-27T11:07:32;91518.72;;;-1.79;76.00
63493;BME280;49638;47.526;10.028;2023-01-27T11:10:47;91519.00;;;-1.74;73.60
63493;BME280;49638;47.526;10.028;2023-01-27T11:14:15;91500.72;;;-1.58;73.94
63493;BME280;49638;47.526;10.028;2023-01-27T11:18:18;91492.25;;;-1.52;73.49
63493;BME280;49638;47.526;10.028;2023-01-27T11:21:04;91487.88;;;-1.36;75.32
63493;BME280;49638;47.526;10.028;2023-01-27T11:24:44;91491.84;;;-1.26;72.46
63493;BME280;49638;47.526;10.028;2023-01-27T11:31:19;91501.38;;;-1.26;72.25
63493;BME280;49638;47.526;10.028;2023-01-27T11:34:25;91506.22;;;-1.23;74.87
63493;BME280;49638;47.526;10.028;2023-01-27T11:37:35;91504.84;;;-1.19;74.57
63493;BME280;49638;47.526;10.028;2023-01-27T11:40:36;91493.00;;;-1.28;75.10
63493;BME280;49638;47.526;10.028;2023-01-27T11:43:38;91507.84;;;-1.22;74.75
63493;BME280;49638;47.526;10.028;2023-01-27T11:46:39;91505.16;;;-1.29;73.97
63493;BME280;49638;47.526;10.028;2023-01-27T11:49:43;91514.78;;;-1.37;72.58
63493;BME280;49638;47.526;10.028;2023-01-27T11:52:47;91520.31;;;-1.40;74.46
63493;BME280;49638;47.526;10.028;2023-01-27T11:55:53;91515.91;;;-1.55;74.68
63493;BME280;49638;47.526;10.028;2023-01-27T12:05:10;91514.44;;;-1.72;73.93
63493;BME280;49638;47.526;10.028;2023-01-27T12:08:34;91509.63;;;-1.75;74.25
63493;BME280;49638;47.526;10.028;2023-01-27T12:11:34;91512.38;;;-1.77;75.59
63493;BME280;49638;47.526;10.028;2023-01-27T12:14:35;91515.91;;;-1.70;75.93
63493;BME280;49638;47.526;10.028;2023-01-27T12:17:45;91507.75;;;-1.67;75.56
63493;BME280;49638;47.526;10.028;2023-01-27T12:20:49;91493.53;;;-1.71;76.27
63493;BME280;49638;47.526;10.028;2023-01-27T12:23:56;91494.53;;;-1.72;76.09
63493;BME280;49638;47.526;10.028;2023-01-27T12:26:57;91494.00;;;-1.67;76.29
63493;BME280;49638;47.526;10.028;2023-01-27T12:30:02;91499.53;;;-1.70;76.46
63493;BME280;49638;47.526;10.028;2023-01-27T12:33:12;91475.66;;;-1.80;76.35
63493;BME280;49638;47.526;10.028;2023-01-27T12:36:20;91493.03;;;-1.66;76.93
63493;BME280;49638;47.526;10.028;2023-01-27T12:39:29;91488.81;;;-1.67;77.08
63493;BME280;49638;47.526;10.028;2023-01-27T12:42:41;91489.44;;;-1.65;76.22
63493;BME280;49638;47.526;10.028;2023-01-27T12:45:43;91461.03;;;-1.73;77.43
63493;BME280;49638;47.526;10.028;2023-01-27T12:48:47;91485.81;;;-1.56;77.50
63493;BME280;49638;47.526;10.028;2023-01-27T12:51:54;91477.41;;;-1.58;76.53
63493;BME280;49638;47.526;10.028;2023-01-27T12:54:54;91481.31;;;-1.62;77.04
63493;BME280;49638;47.526;10.028;2023-01-27T12:57:56;91484.06;;;-1.63;77.18
63493;BME280;49638;47.526;10.028;2023-01-27T13:00:58;91465.84;;;-1.70;77.50
63493;BME280;49638;47.526;10.028;2023-01-27T13:04:02;91480.88;;;-1.65;77.12
63493;BME280;49638;47.526;10.028;2023-01-27T13:07:04;91480.53;;;-1.62;77.57
63493;BME280;49638;47.526;10.028;2023-01-27T13:10:15;91495.44;;;-1.64;76.96
63493;BME280;49638;47.526;10.028;2023-01-27T13:13:22;91489.59;;;-1.67;77.59
63493;BME280;49638;47.526;10.028;2023-01-27T13:16:26;91482.56;;;-1.73;78.17
63493;BME280;49638;47.526;10.028;2023-01-27T13:19:33;91487.56;;;-1.71;76.50
63493;BME280;49638;47.526;10.028;2023-01-27T13:22:41;91492.75;;;-1.71;77.90
63493;BME280;49638;47.526;10.028;2023-01-27T13:25:50;91492.13;;;-1.73;78.22
63493;BME280;49638;47.526;10.028;2023-01-27T13:28:55;91501.03;;;-1.76;78.38
63493;BME280;49638;47.526;10.028;2023-01-27T13:32:03;91482.00;;;-1.83;78.00
63493;BME280;49638;47.526;10.028;2023-01-27T13:35:18;91502.84;;;-1.76;78.03
63493;BME280;49638;47.526;10.028;2023-01-27T13:38:28;91504.44;;;-1.75;78.60
63493;BME280;49638;47.526;10.028;2023-01-27T13:41:38;91492.81;;;-1.79;78.91
63493;BME280;49638;47.526;10.028;2023-01-27T13:45:02;91502.50;;;-1.73;77.44
63493;BME280;49638;47.526;10.028;2023-01-27T13:48:09;91494.22;;;-1.77;78.31
63493;BME280;49638;47.526;10.028;2023-01-27T13:51:15;91502.66;;;-1.75;78.40
63493;BME280;49638;47.526;10.028;2023-01-27T13:54:16;91492.97;;;-1.81;78.66
63493;BME280;49638;47.526;10.028;2023-01-27T14:00:50;91514.22;;;-1.85;78.67
63493;BME280;49638;47.526;10.028;2023-01-27T14:07:11;91501.25;;;-2.00;79.72
63493;BME280;49638;47.526;10.028;2023-01-27T14:24:04;91507.03;;;-1.98;80.44
63493;BME280;49638;47.526;10.028;2023-01-27T14:27:14;91506.25;;;-1.99;79.95
63493;BME280;49638;47.526;10.028;2023-01-27T14:40:12;91511.22;;;-1.97;79.82
63493;BME280;49638;47.526;10.028;2023-01-27T14:57:18;91544.78;;;-2.04;80.47
63493;BME280;49638;47.526;10.028;2023-01-27T15:04:04;91542.72;;;-2.08;80.73
63493;BME280;49638;47.526;10.028;2023-01-27T15:07:15;91557.25;;;-2.07;80.47
63493;BME280;49638;47.526;10.028;2023-01-27T15:16:56;91560.50;;;-2.05;81.08
63493;BME280;49638;47.526;10.028;2023-01-27T15:23:55;91560.22;;;-2.10;80.84
63493;BME280;49638;47.526;10.028;2023-01-27T15:26:56;91569.47;;;-2.16;81.28
63493;BME280;49638;47.526;10.028;2023-01-27T15:30:31;91570.78;;;-2.20;81.63
63493;BME280;49638;47.526;10.028;2023-01-27T15:37:00;91568.81;;;-2.18;81.55
63493;BME280;49638;47.526;10.028;2023-01-27T15:43:02;91567.75;;;-2.24;81.35
63493;BME280;49638;47.526;10.028;2023-01-27T15:46:24;91569.81;;;-2.19;81.63
63493;BME280;49638;47.526;10.028;2023-01-27T15:49:34;91557.72;;;-2.27;81.66
63493;BME280;49638;47.526;10.028;2023-01-27T15:52:45;91568.38;;;-2.22;81.95
63493;BME280;49638;47.526;10.028;2023-01-27T15:55:49;91576.25;;;-2.15;81.51
63493;BME280;49638;47.526;10.028;2023-01-27T15:58:55;91572.88;;;-2.16;81.33
63493;BME280;49638;47.526;10.028;2023-01-27T16:02:19;91576.25;;;-2.15;82.21
63493;BME280;49638;47.526;10.028;2023-01-27T16:05:35;91582.41;;;-2.16;81.51
63493;BME280;49638;47.526;10.028;2023-01-27T16:08:48;91588.41;;;-2.16;81.47
63493;BME280;49638;47.526;10.028;2023-01-27T16:18:40;91595.19;;;-2.15;81.34
63493;BME280;49638;47.526;10.028;2023-01-27T16:21:46;91602.00;;;-2.13;81.24
63493;BME280;49638;47.526;10.028;2023-01-27T16:31:16;91604.78;;;-2.23;81.46
63493;BME280;49638;47.526;10.028;2023-01-27T16:34:25;91606.09;;;-2.27;81.83
63493;BME280;49638;47.526;10.028;2023-01-27T16:37:29;91597.03;;;-2.31;81.67
63493;BME280;49638;47.526;10.028;2023-01-27T16:40:33;91611.28;;;-2.27;82.13
63493;BME280;49638;47.526;10.028;2023-01-27T16:43:44;91609.38;;;-2.33;82.71
63493;BME280;49638;47.526;10.028;2023-01-27T16:46:51;91614.22;;;-2.30;82.75
63493;BME280;49638;47.526;10.028;2023-01-27T16:49:53;91613.69;;;-2.26;82.29
63493;BME280;49638;47.526;10.028;2023-01-27T16:52:55;91614.50;;;-2.25;82.21
63493;BME280;49638;47.526;10.028;2023-01-27T16:56:06;91613.56;;;-2.32;82.52
63493;BME280;49638;47.526;10.028;2023-01-27T16:59:20;91625.97;;;-2.28;82.21
63493;BME280;49638;47.526;10.028;2023-01-27T17:02:24;91629.41;;;-2.27;82.12
63493;BME280;49638;47.526;10.028;2023-01-27T17:05:25;91612.09;;;-2.35;82.10
63493;BME280;49638;47.526;10.028;2023-01-27T17:08:27;91639.41;;;-2.24;81.96
63493;BME280;49638;47.526;10.028;2023-01-27T17:11:34;91635.53;;;-2.28;82.09
63493;BME280;49638;47.526;10.028;2023-01-27T17:14:35;91633.13;;;-2.30;82.39
63493;BME280;49638;47.526;10.028;2023-01-27T17:17:37;91631.53;;;-2.31;82.48
63493;BME280;49638;47.526;10.028;2023-01-27T17:20:41;91637.16;;;-2.27;82.62
63493;BME280;49638;47.526;10.028;2023-01-27T17:23:44;91638.94;;;-2.28;82.46
63493;BME280;49638;47.526;10.028;2023-01-27T17:26:48;91627.81;;;-2.36;82.88
63493;BME280;49638;47.526;10.028;2023-01-27T17:29:52;91631.53;;;-2.31;82.32
63493;BME280;49638;47.526;10.028;2023-01-27T17:32:56;91634.13;;;-2.39;82.48
63493;BME280;49638;47.526;10.028;2023-01-27T17:36:07;91642.53;;;-2.37;82.91
63493;BME280;49638;47.526;10.028;2023-01-27T17:39:23;91640.09;;;-2.39;82.65
63493;BME280;49638;47.526;10.028;2023-01-27T17:42:28;91644.34;;;-2.46;82.64
63493;BME280;49638;47.526;10.028;2023-01-27T17:45:30;91637.91;;;-2.50;83.34
63493;BME280;49638;47.526;10.028;2023-01-27T17:48:37;91640.16;;;-2.47;83.88
63493;BME280;49638;47.526;10.028;2023-01-27T17:51:42;91654.53;;;-2.44;82.31
63493;BME280;49638;47.526;10.028;2023-01-27T17:54:44;91645.00;;;-2.52;82.58
63493;BME280;49638;47.526;10.028;2023-01-27T17:57:48;91636.09;;;-2.49;83.55
63493;BME280;49638;47.526;10.028;2023-01-27T18:00:49;91654.38;;;-2.43;83.07
63493;BME280;49638;47.526;10.028;2023-01-27T18:03:53;91639.69;;;-2.50;83.15
63493;BME280;49638;47.526;10.028;2023-01-27T18:06:55;91663.72;;;-2.42;83.32
63493;BME280;49638;47.526;10.028;2023-01-27T18:09:56;91641.63;;;-2.52;83.44
63493;BME280;49638;47.526;10.028;2023-01-27T18:13:10;91652.28;;;-2.55;84.37